SVSR/SFD METAR and TAF weather

Enter ICAO airport designator
Station Type Date Time Source
SVSR METAR 2021/07/04 00:03 UTC NOAA

SVSR 040003Z AUTO 16002KT NCD 28/21 Q1016


Station Type Date Time Source
SVSR Decoded METAR 2021/07/04 00:03 UTC NOAA

San Fernando De Apure, Venezuela (SVSR) 07-54N 067-25W 48M
Jul 03, 2021 - 08:03 PM EDT / 2021.07.04 0003 UTC
Wind: from the SSE (160 degrees) at 2 MPH (2 KT):0
Temperature: 82 F (28 C)
Dew Point: 69 F (21 C)
Relative Humidity: 65%
Pressure (altimeter): 30.00 in. Hg (1016 hPa)
ob: SVSR 040003Z AUTO 16002KT NCD 28/21 Q1016
cycle: 0

Station Type Date Time Source
SVSR TAF UTC NOAA

Error!

Example: see airport list